BIENTÔT MET'MAP
version 2.0 !

Prévue avant fin octobre,
la nouvelle version sera
plus belle, plus complète
et hébergée sur un serveur
3 fois plus puissant...
et toujours gratuite !


Pas compatible ?
Essayez la version Mobile !

SE CONNECTER : | S'inscrire | Disclaimer | Découvrir Orbifly |
Code OACI :
Lgende : VFR VFR Marginal IFR IFR Intensif IFR Trs Intensif
Visi :
Plafond :
>= 8 km
>= 3000ft
5 8 km
1000 3000 ft
1500m 5 km
500 1000 ft
800 1500m
200 500 ft
< 800m
< 200 ft

METAR - EGBB Birmingham - 27 Jan 2020 22:02 UTC
Data Sources :     NOAA   


- Altitude de l'aérodrome : 327 ft
- Code IATA : BHX
- Pas de NOTAMs connus.


EGBB - Birmingham

Dernier METAR connu : 2015/08/11 07:50 EGBB 110750Z 01004KT 320V050 CAVOK 14/11 Q1020
TAF TAF EGBB
Valide du 27 à 18h jusqu'au 28 à 18h UTC


271706Z 2718/2818 19007KT 9999 SCT030
PROB30
TEMPO 2718/2720 4000 SHRA BKN009
TEMPO 2720/2803 6000 SHRA BKN009
BECMG 2803/2806 26010KT
PROB30
TEMPO 2803/2808 6000 SHRA -RASN BKN007
PROB30
TEMPO 2812/2818 6000 SHRA

Source NOAA
ATIS : +44 121 780 0910


MET'MAP, la Météo Aéronautique d'un coup d'oeil ! - Copyright ORBIFLY Décembre 2007

Développement & Programmation : Alexandra Zaïnal
Co-Développement : Marc-Olivier Méhu
Soutien technique & logistique : Manuel Goepfert
Conception & Financement : Baudouin d'Aumeries